EDLPEDDE

Guest
Details From EDLP - Paderborn Lippstadt
To EDDE - Erfurt
Flight Number -
Tags generated
Created
Modified
Stats Distance 96 nm / 178 km
Max Altitude 6,900 ft / 2,103 m
Waypoints 3
Social Downloads 0
Likes 0
Share VATSIM

Download

Looking for another format? Having issues loading an existing format? Contact us
Advertisement - Login to hide

Notes

Basic altitude profile: - Ascent Rate: 2500ft/min - Ascent Speed: 250kts - Cruise Altitude: 35000ft - Cruise Speed: 420kts - Descent Rate: 1500ft/min - Descent Speed: 250kts Options: - Use NATs: yes - Use PACOTS: yes - Use low airways: yes - Use high airways: no

Route

EDLP WRB EDDE

ID Type Via Altitude Latitude Longitude Leg Dist Tot Dist Heading (true) Name
O EDLP APT - 0 ft / 0 m 51.61417˚ 8.61634˚ - 0 nm - Paderborn Lippstadt
WRB VOR - 6,900 ft / 2,103 m 51.50570˚ 9.11091˚ 19 nm 19 nm 109° / 110° WARBURG VOR-DME
O EDDE APT - 0 ft / 0 m 50.97981˚ 10.95810˚ 76 nm 95 nm 114° / 115° Erfurt

Altitude Profile

Advertisement - Login to hide

EDLP

Details ICAO EDLP (PAD)
Name Paderborn Lippstadt
Region Germany - Civil
Timezone Europe/Berlin (UTC+1.0)
Stats Elevation 699 ft / 213 m (AMSL)
Location 51.614166° 8.616336°
Runways 1
Magnetic Variation 2.358° E

METAR

EDLP 180920Z 16005KT 9999 BKN024 01/M01 Q1020

Decode

TAF

TAF TAF EDLP 180500Z 1806/1906 16010KT 7000 BKN020 TEMPO 1806/1809 4000 -RASN BKN012 BECMG 1809/1812 VRB03KT BECMG 1818/1821 BKN012 TEMPO 1821/1824 4000 BR BKN006 BECMG 1900/1903 2500 BR BKN004 PROB30 TEMPO 1903/1906 0400 FG BKN001

Decode

Departure Runways

ID Width Length Bearing (true) Bearing (mag) Surface Threshold Offset Overrun Length
06 148 ft / 45 m 7,136 ft / 2,175 m 57.28° 54.92° Asphalt 0 ft / 0 m 1,066 ft / 325 m
24 148 ft / 45 m 7,136 ft / 2,175 m 237.30° 234.94° Asphalt 0 ft / 0 m 397 ft / 121 m

EDDE

Details ICAO EDDE (ERF)
Name Erfurt
Region Germany - Civil
Timezone Europe/Berlin (UTC+1.0)
Stats Elevation 1,035 ft / 315 m (AMSL)
Location 50.979808° 10.958105°
Runways 1
Magnetic Variation 3.026° E

METAR

EDDE 180920Z 16007KT CAVOK 01/M02 Q1021 NOSIG

Decode

TAF

TAF TAF EDDE 180500Z 1806/1906 18007KT 9999 BKN030 PROB30 TEMPO 1806/1810 4500 -SN BECMG 1812/1814 VRB03KT BECMG 1819/1821 23007KT

Decode

Destination Runways

ID Width Length Bearing (true) Bearing (mag) Surface Threshold Offset Overrun Length
10 164 ft / 50 m 8,523 ft / 2,598 m 98.24° 95.21° Asphalt 0 ft / 0 m 0 ft / 0 m
28 164 ft / 50 m 8,523 ft / 2,598 m 278.27° 275.24° Asphalt 656 ft / 200 m 0 ft / 0 m

Approach Navaids

Runway Type Ident Frequency Range Bearing (true) Bearing (mag) Slope Elevation
10 Localiser IERE 108.30 MHz 18 nm / 33 km 97.72° 94.69° - 1,016 ft / 310 m (AMSL)
10 Glidescope IERE 108.30 MHz 10 nm / 19 km 98.25° 95.22° 3.00° 1,035 ft / 315 m (AMSL)
28 Localiser IERW 109.90 MHz 18 nm / 33 km 277.68° 274.65° - 1,025 ft / 312 m (AMSL)
28 Glidescope IERW 109.90 MHz 10 nm / 19 km 278.25° 275.22° 3.00° 1,035 ft / 315 m (AMSL)